sensor_id;sensor_type;location;lat;lon;timestamp;P1;durP1;ratioP1;P2;durP2;ratioP2
7205;SDS011;3644;53.480;10.004;2022-09-17T00:01:01;28.30;;;4.17;;
7205;SDS011;3644;53.480;10.004;2022-09-17T00:03:28;21.13;;;4.70;;
7205;SDS011;3644;53.480;10.004;2022-09-17T00:05:58;35.40;;;4.93;;
7205;SDS011;3644;53.480;10.004;2022-09-17T00:08:30;29.10;;;5.00;;
7205;SDS011;3644;53.480;10.004;2022-09-17T00:10:56;27.73;;;5.70;;
7205;SDS011;3644;53.480;10.004;2022-09-17T00:13:22;39.07;;;5.30;;
7205;SDS011;3644;53.480;10.004;2022-09-17T00:15:48;31.07;;;5.07;;
7205;SDS011;3644;53.480;10.004;2022-09-17T00:18:15;19.13;;;4.37;;
7205;SDS011;3644;53.480;10.004;2022-09-17T00:20:44;29.67;;;5.23;;
7205;SDS011;3644;53.480;10.004;2022-09-17T00:23:11;25.47;;;5.00;;
7205;SDS011;3644;53.480;10.004;2022-09-17T00:25:39;31.00;;;5.83;;
7205;SDS011;3644;53.480;10.004;2022-09-17T00:28:05;31.13;;;6.27;;
7205;SDS011;3644;53.480;10.004;2022-09-17T00:30:30;25.90;;;5.07;;
7205;SDS011;3644;53.480;10.004;2022-09-17T00:32:56;26.37;;;4.87;;
7205;SDS011;3644;53.480;10.004;2022-09-17T00:35:22;22.00;;;4.37;;
7205;SDS011;3644;53.480;10.004;2022-09-17T00:37:49;32.20;;;4.27;;
7205;SDS011;3644;53.480;10.004;2022-09-17T00:40:15;31.00;;;4.63;;
7205;SDS011;3644;53.480;10.004;2022-09-17T00:42:41;23.47;;;4.90;;
7205;SDS011;3644;53.480;10.004;2022-09-17T00:45:07;33.33;;;4.47;;
7205;SDS011;3644;53.480;10.004;2022-09-17T00:47:47;30.20;;;3.83;;
7205;SDS011;3644;53.480;10.004;2022-09-17T00:50:26;18.93;;;4.33;;
7205;SDS011;3644;53.480;10.004;2022-09-17T00:53:00;29.93;;;6.43;;
7205;SDS011;3644;53.480;10.004;2022-09-17T00:55:30;19.83;;;4.10;;
7205;SDS011;3644;53.480;10.004;2022-09-17T00:58:00;23.47;;;3.60;;
7205;SDS011;3644;53.480;10.004;2022-09-17T01:00:28;16.63;;;3.13;;
7205;SDS011;3644;53.480;10.004;2022-09-17T01:02:55;22.20;;;3.90;;
7205;SDS011;3644;53.480;10.004;2022-09-17T01:05:43;26.83;;;3.97;;
7205;SDS011;3644;53.480;10.004;2022-09-17T01:16:52;28.03;;;3.60;;
7205;SDS011;3644;53.480;10.004;2022-09-17T01:19:40;19.97;;;3.70;;
7205;SDS011;3644;53.480;10.004;2022-09-17T01:22:21;23.30;;;3.70;;
7205;SDS011;3644;53.480;10.004;2022-09-17T01:25:22;18.20;;;3.70;;
7205;SDS011;3644;53.480;10.004;2022-09-17T01:33:25;26.77;;;4.60;;
7205;SDS011;3644;53.480;10.004;2022-09-17T01:36:19;35.43;;;5.53;;
7205;SDS011;3644;53.480;10.004;2022-09-17T01:38:53;22.93;;;3.40;;
7205;SDS011;3644;53.480;10.004;2022-09-17T01:41:25;24.03;;;3.90;;
7205;SDS011;3644;53.480;10.004;2022-09-17T01:47:08;22.93;;;4.00;;
7205;SDS011;3644;53.480;10.004;2022-09-17T01:49:44;23.30;;;3.27;;
7205;SDS011;3644;53.480;10.004;2022-09-17T01:52:11;20.33;;;4.20;;
7205;SDS011;3644;53.480;10.004;2022-09-17T01:54:40;28.70;;;4.70;;
7205;SDS011;3644;53.480;10.004;2022-09-17T01:57:18;18.37;;;3.90;;
7205;SDS011;3644;53.480;10.004;2022-09-17T01:59:51;24.23;;;4.97;;
7205;SDS011;3644;53.480;10.004;2022-09-17T02:02:39;20.90;;;4.73;;
7205;SDS011;3644;53.480;10.004;2022-09-17T02:08:09;27.73;;;4.60;;
7205;SDS011;3644;53.480;10.004;2022-09-17T02:10:41;37.43;;;6.07;;
7205;SDS011;3644;53.480;10.004;2022-09-17T02:13:14;25.17;;;5.07;;
7205;SDS011;3644;53.480;10.004;2022-09-17T02:15:45;15.07;;;3.00;;
7205;SDS011;3644;53.480;10.004;2022-09-17T02:18:34;35.03;;;4.60;;
7205;SDS011;3644;53.480;10.004;2022-09-17T02:23:33;16.13;;;3.77;;
7205;SDS011;3644;53.480;10.004;2022-09-17T02:26:14;23.50;;;3.00;;
7205;SDS011;3644;53.480;10.004;2022-09-17T02:28:48;20.93;;;4.23;;
7205;SDS011;3644;53.480;10.004;2022-09-17T02:31:19;21.07;;;4.00;;
7205;SDS011;3644;53.480;10.004;2022-09-17T02:33:46;21.30;;;3.27;;
7205;SDS011;3644;53.480;10.004;2022-09-17T02:36:15;18.37;;;3.60;;
7205;SDS011;3644;53.480;10.004;2022-09-17T02:38:42;17.97;;;4.23;;
7205;SDS011;3644;53.480;10.004;2022-09-17T02:41:17;28.87;;;3.70;;
7205;SDS011;3644;53.480;10.004;2022-09-17T02:43:50;22.03;;;3.80;;
7205;SDS011;3644;53.480;10.004;2022-09-17T02:46:46;22.27;;;3.73;;
7205;SDS011;3644;53.480;10.004;2022-09-17T02:49:42;22.63;;;3.37;;
7205;SDS011;3644;53.480;10.004;2022-09-17T02:55:17;22.50;;;3.60;;
7205;SDS011;3644;53.480;10.004;2022-09-17T02:57:53;18.27;;;3.70;;
7205;SDS011;3644;53.480;10.004;2022-09-17T03:00:28;22.60;;;4.20;;
7205;SDS011;3644;53.480;10.004;2022-09-17T03:06:00;18.40;;;3.60;;
7205;SDS011;3644;53.480;10.004;2022-09-17T03:08:29;21.93;;;4.20;;
7205;SDS011;3644;53.480;10.004;2022-09-17T03:10:58;19.30;;;4.83;;
7205;SDS011;3644;53.480;10.004;2022-09-17T03:13:24;26.53;;;3.13;;
7205;SDS011;3644;53.480;10.004;2022-09-17T03:15:50;23.37;;;3.33;;
7205;SDS011;3644;53.480;10.004;2022-09-17T03:18:15;22.40;;;3.47;;
7205;SDS011;3644;53.480;10.004;2022-09-17T03:20:41;17.70;;;3.30;;
7205;SDS011;3644;53.480;10.004;2022-09-17T03:23:06;13.50;;;4.00;;
7205;SDS011;3644;53.480;10.004;2022-09-17T03:25:32;10.40;;;2.90;;
7205;SDS011;3644;53.480;10.004;2022-09-17T03:27:57;15.70;;;3.43;;
7205;SDS011;3644;53.480;10.004;2022-09-17T03:30:23;12.20;;;2.83;;
7205;SDS011;3644;53.480;10.004;2022-09-17T03:32:49;15.63;;;2.70;;
7205;SDS011;3644;53.480;10.004;2022-09-17T03:35:14;15.00;;;2.63;;
7205;SDS011;3644;53.480;10.004;2022-09-17T03:37:39;15.27;;;2.73;;
7205;SDS011;3644;53.480;10.004;2022-09-17T03:40:05;19.47;;;4.33;;
7205;SDS011;3644;53.480;10.004;2022-09-17T03:42:31;18.27;;;3.37;;
7205;SDS011;3644;53.480;10.004;2022-09-17T03:44:57;10.90;;;2.70;;
7205;SDS011;3644;53.480;10.004;2022-09-17T03:47:22;14.17;;;2.90;;
7205;SDS011;3644;53.480;10.004;2022-09-17T03:49:48;15.40;;;3.00;;
7205;SDS011;3644;53.480;10.004;2022-09-17T03:52:13;11.87;;;3.00;;
7205;SDS011;3644;53.480;10.004;2022-09-17T03:54:39;21.03;;;4.03;;
7205;SDS011;3644;53.480;10.004;2022-09-17T03:57:05;22.77;;;4.43;;
7205;SDS011;3644;53.480;10.004;2022-09-17T03:59:30;25.93;;;3.83;;
7205;SDS011;3644;53.480;10.004;2022-09-17T04:01:56;21.87;;;3.40;;
7205;SDS011;3644;53.480;10.004;2022-09-17T04:04:21;10.67;;;3.10;;
7205;SDS011;3644;53.480;10.004;2022-09-17T04:06:47;8.03;;;3.00;;
7205;SDS011;3644;53.480;10.004;2022-09-17T04:09:13;11.20;;;3.00;;
7205;SDS011;3644;53.480;10.004;2022-09-17T04:11:38;20.23;;;3.40;;
7205;SDS011;3644;53.480;10.004;2022-09-17T04:14:04;9.97;;;2.60;;
7205;SDS011;3644;53.480;10.004;2022-09-17T04:16:29;9.57;;;2.93;;
7205;SDS011;3644;53.480;10.004;2022-09-17T04:18:55;16.30;;;3.37;;
7205;SDS011;3644;53.480;10.004;2022-09-17T04:21:20;18.53;;;2.70;;
7205;SDS011;3644;53.480;10.004;2022-09-17T04:23:46;12.40;;;2.67;;
7205;SDS011;3644;53.480;10.004;2022-09-17T04:26:11;10.60;;;2.50;;
7205;SDS011;3644;53.480;10.004;2022-09-17T04:28:37;13.70;;;3.00;;
7205;SDS011;3644;53.480;10.004;2022-09-17T04:31:02;14.00;;;3.07;;
7205;SDS011;3644;53.480;10.004;2022-09-17T04:33:28;17.07;;;2.77;;
7205;SDS011;3644;53.480;10.004;2022-09-17T04:35:53;21.67;;;3.27;;
7205;SDS011;3644;53.480;10.004;2022-09-17T04:38:19;12.03;;;2.50;;
7205;SDS011;3644;53.480;10.004;2022-09-17T04:40:46;8.43;;;2.80;;
7205;SDS011;3644;53.480;10.004;2022-09-17T04:43:11;19.23;;;2.80;;
7205;SDS011;3644;53.480;10.004;2022-09-17T04:45:37;15.70;;;3.17;;
7205;SDS011;3644;53.480;10.004;2022-09-17T04:48:03;16.00;;;2.90;;
7205;SDS011;3644;53.480;10.004;2022-09-17T04:50:28;17.37;;;3.17;;
7205;SDS011;3644;53.480;10.004;2022-09-17T04:52:54;17.30;;;3.13;;
7205;SDS011;3644;53.480;10.004;2022-09-17T04:55:20;18.27;;;3.90;;
7205;SDS011;3644;53.480;10.004;2022-09-17T04:57:46;24.97;;;3.70;;
7205;SDS011;3644;53.480;10.004;2022-09-17T05:00:12;13.00;;;3.40;;
7205;SDS011;3644;53.480;10.004;2022-09-17T05:02:39;10.00;;;2.80;;
7205;SDS011;3644;53.480;10.004;2022-09-17T05:05:07;18.77;;;2.80;;
7205;SDS011;3644;53.480;10.004;2022-09-17T05:07:32;22.30;;;2.90;;
7205;SDS011;3644;53.480;10.004;2022-09-17T05:09:58;16.87;;;3.20;;
7205;SDS011;3644;53.480;10.004;2022-09-17T05:12:23;15.63;;;3.20;;
7205;SDS011;3644;53.480;10.004;2022-09-17T05:14:49;15.30;;;3.83;;
7205;SDS011;3644;53.480;10.004;2022-09-17T05:17:14;17.50;;;3.63;;
7205;SDS011;3644;53.480;10.004;2022-09-17T05:19:40;18.80;;;3.73;;
7205;SDS011;3644;53.480;10.004;2022-09-17T05:22:05;19.03;;;3.60;;
7205;SDS011;3644;53.480;10.004;2022-09-17T05:24:31;21.50;;;3.90;;
7205;SDS011;3644;53.480;10.004;2022-09-17T05:26:57;15.67;;;3.37;;
7205;SDS011;3644;53.480;10.004;2022-09-17T05:29:23;19.63;;;3.30;;
7205;SDS011;3644;53.480;10.004;2022-09-17T05:31:48;12.93;;;3.93;;
7205;SDS011;3644;53.480;10.004;2022-09-17T05:34:14;18.33;;;3.37;;
7205;SDS011;3644;53.480;10.004;2022-09-17T05:36:39;24.57;;;3.37;;
7205;SDS011;3644;53.480;10.004;2022-09-17T05:39:05;15.00;;;3.70;;
7205;SDS011;3644;53.480;10.004;2022-09-17T05:41:30;15.43;;;3.63;;
7205;SDS011;3644;53.480;10.004;2022-09-17T05:43:56;10.73;;;3.03;;
7205;SDS011;3644;53.480;10.004;2022-09-17T05:46:21;16.87;;;3.40;;
7205;SDS011;3644;53.480;10.004;2022-09-17T05:48:47;14.17;;;4.00;;
7205;SDS011;3644;53.480;10.004;2022-09-17T05:51:12;18.70;;;3.60;;
7205;SDS011;3644;53.480;10.004;2022-09-17T05:53:38;11.97;;;3.40;;
7205;SDS011;3644;53.480;10.004;2022-09-17T05:56:03;14.97;;;2.70;;
7205;SDS011;3644;53.480;10.004;2022-09-17T05:58:29;10.33;;;3.10;;
7205;SDS011;3644;53.480;10.004;2022-09-17T06:00:55;8.47;;;2.87;;
7205;SDS011;3644;53.480;10.004;2022-09-17T06:03:25;12.70;;;3.17;;
7205;SDS011;3644;53.480;10.004;2022-09-17T06:05:54;26.93;;;3.47;;
7205;SDS011;3644;53.480;10.004;2022-09-17T06:08:22;13.97;;;3.70;;
7205;SDS011;3644;53.480;10.004;2022-09-17T06:10:48;18.70;;;3.20;;
7205;SDS011;3644;53.480;10.004;2022-09-17T06:13:17;15.23;;;2.77;;
7205;SDS011;3644;53.480;10.004;2022-09-17T06:15:50;14.03;;;2.73;;
7205;SDS011;3644;53.480;10.004;2022-09-17T06:18:17;12.63;;;2.87;;
7205;SDS011;3644;53.480;10.004;2022-09-17T06:20:53;12.50;;;2.73;;
7205;SDS011;3644;53.480;10.004;2022-09-17T06:23:26;27.60;;;6.50;;
7205;SDS011;3644;53.480;10.004;2022-09-17T06:25:53;29.57;;;3.13;;
7205;SDS011;3644;53.480;10.004;2022-09-17T06:28:20;16.40;;;2.90;;
7205;SDS011;3644;53.480;10.004;2022-09-17T06:30:46;17.60;;;2.87;;
7205;SDS011;3644;53.480;10.004;2022-09-17T06:33:12;12.03;;;2.47;;
7205;SDS011;3644;53.480;10.004;2022-09-17T06:35:38;19.80;;;2.70;;
7205;SDS011;3644;53.480;10.004;2022-09-17T06:38:04;20.47;;;3.23;;
7205;SDS011;3644;53.480;10.004;2022-09-17T06:40:30;14.03;;;3.47;;
7205;SDS011;3644;53.480;10.004;2022-09-17T06:42:56;13.37;;;2.50;;
7205;SDS011;3644;53.480;10.004;2022-09-17T06:45:23;18.43;;;3.13;;
7205;SDS011;3644;53.480;10.004;2022-09-17T06:47:49;17.90;;;3.30;;
7205;SDS011;3644;53.480;10.004;2022-09-17T06:50:14;15.60;;;3.00;;
7205;SDS011;3644;53.480;10.004;2022-09-17T06:52:46;11.87;;;2.63;;
7205;SDS011;3644;53.480;10.004;2022-09-17T06:55:13;13.00;;;2.70;;
7205;SDS011;3644;53.480;10.004;2022-09-17T06:57:39;13.60;;;2.90;;
7205;SDS011;3644;53.480;10.004;2022-09-17T07:00:05;19.33;;;3.43;;
7205;SDS011;3644;53.480;10.004;2022-09-17T07:02:31;18.53;;;3.77;;
7205;SDS011;3644;53.480;10.004;2022-09-17T07:04:57;16.33;;;2.60;;
7205;SDS011;3644;53.480;10.004;2022-09-17T07:07:22;12.03;;;2.60;;
7205;SDS011;3644;53.480;10.004;2022-09-17T07:09:48;10.10;;;2.47;;
7205;SDS011;3644;53.480;10.004;2022-09-17T07:12:13;8.90;;;2.10;;
7205;SDS011;3644;53.480;10.004;2022-09-17T07:14:39;6.87;;;2.03;;
7205;SDS011;3644;53.480;10.004;2022-09-17T07:17:04;17.97;;;2.90;;
7205;SDS011;3644;53.480;10.004;2022-09-17T07:19:31;8.67;;;1.93;;
7205;SDS011;3644;53.480;10.004;2022-09-17T07:21:56;8.90;;;1.67;;
7205;SDS011;3644;53.480;10.004;2022-09-17T07:24:22;5.57;;;2.30;;
7205;SDS011;3644;53.480;10.004;2022-09-17T07:26:48;9.97;;;2.20;;
7205;SDS011;3644;53.480;10.004;2022-09-17T07:29:15;10.10;;;2.33;;
7205;SDS011;3644;53.480;10.004;2022-09-17T07:31:40;10.27;;;4.17;;
7205;SDS011;3644;53.480;10.004;2022-09-17T07:34:05;16.80;;;2.53;;
7205;SDS011;3644;53.480;10.004;2022-09-17T07:36:31;10.27;;;2.27;;
7205;SDS011;3644;53.480;10.004;2022-09-17T07:38:56;19.07;;;2.43;;
7205;SDS011;3644;53.480;10.004;2022-09-17T07:41:22;16.30;;;2.57;;
7205;SDS011;3644;53.480;10.004;2022-09-17T07:43:50;6.87;;;2.27;;
7205;SDS011;3644;53.480;10.004;2022-09-17T07:46:17;5.23;;;1.60;;
7205;SDS011;3644;53.480;10.004;2022-09-17T07:48:44;10.00;;;2.13;;
7205;SDS011;3644;53.480;10.004;2022-09-17T07:51:20;7.63;;;1.93;;
7205;SDS011;3644;53.480;10.004;2022-09-17T07:53:50;12.57;;;2.50;;
7205;SDS011;3644;53.480;10.004;2022-09-17T07:56:17;16.33;;;2.67;;
7205;SDS011;3644;53.480;10.004;2022-09-17T07:58:43;13.63;;;2.50;;
7205;SDS011;3644;53.480;10.004;2022-09-17T08:01:09;10.30;;;3.50;;
7205;SDS011;3644;53.480;10.004;2022-09-17T08:03:38;9.10;;;1.90;;
7205;SDS011;3644;53.480;10.004;2022-09-17T08:06:08;23.27;;;2.27;;
7205;SDS011;3644;53.480;10.004;2022-09-17T08:08:35;11.90;;;2.90;;
7205;SDS011;3644;53.480;10.004;2022-09-17T08:11:02;13.60;;;2.90;;
7205;SDS011;3644;53.480;10.004;2022-09-17T08:13:30;16.70;;;2.27;;
7205;SDS011;3644;53.480;10.004;2022-09-17T08:15:59;11.90;;;2.57;;
7205;SDS011;3644;53.480;10.004;2022-09-17T08:18:26;22.50;;;3.67;;
7205;SDS011;3644;53.480;10.004;2022-09-17T08:20:55;20.07;;;4.50;;
7205;SDS011;3644;53.480;10.004;2022-09-17T08:23:21;13.30;;;3.60;;
7205;SDS011;3644;53.480;10.004;2022-09-17T08:25:53;13.37;;;4.23;;
7205;SDS011;3644;53.480;10.004;2022-09-17T08:28:20;29.87;;;3.77;;
7205;SDS011;3644;53.480;10.004;2022-09-17T08:30:46;10.50;;;2.57;;
7205;SDS011;3644;53.480;10.004;2022-09-17T08:33:12;15.20;;;2.87;;
7205;SDS011;3644;53.480;10.004;2022-09-17T08:35:38;13.07;;;2.23;;
7205;SDS011;3644;53.480;10.004;2022-09-17T08:38:03;8.30;;;2.57;;
7205;SDS011;3644;53.480;10.004;2022-09-17T08:40:29;14.03;;;2.23;;
7205;SDS011;3644;53.480;10.004;2022-09-17T08:42:55;11.40;;;2.27;;
7205;SDS011;3644;53.480;10.004;2022-09-17T08:45:26;6.13;;;2.67;;
7205;SDS011;3644;53.480;10.004;2022-09-17T08:47:59;11.43;;;2.33;;
7205;SDS011;3644;53.480;10.004;2022-09-17T08:50:30;9.60;;;2.30;;
7205;SDS011;3644;53.480;10.004;2022-09-17T08:55:45;9.97;;;2.30;;
7205;SDS011;3644;53.480;10.004;2022-09-17T09:01:10;6.53;;;2.03;;
7205;SDS011;3644;53.480;10.004;2022-09-17T09:03:52;4.80;;;1.30;;
7205;SDS011;3644;53.480;10.004;2022-09-17T09:06:26;4.57;;;1.33;;
7205;SDS011;3644;53.480;10.004;2022-09-17T09:08:55;7.03;;;1.57;;
7205;SDS011;3644;53.480;10.004;2022-09-17T09:11:27;19.43;;;2.57;;
7205;SDS011;3644;53.480;10.004;2022-09-17T09:16:48;10.23;;;1.63;;
7205;SDS011;3644;53.480;10.004;2022-09-17T09:27:38;3.07;;;1.23;;
7205;SDS011;3644;53.480;10.004;2022-09-17T09:30:13;2.53;;;1.10;;
7205;SDS011;3644;53.480;10.004;2022-09-17T09:35:42;3.10;;;1.10;;
7205;SDS011;3644;53.480;10.004;2022-09-17T09:41:01;7.27;;;1.20;;
7205;SDS011;3644;53.480;10.004;2022-09-17T09:43:51;4.47;;;0.97;;
7205;SDS011;3644;53.480;10.004;2022-09-17T09:52:39;4.30;;;1.37;;
7205;SDS011;3644;53.480;10.004;2022-09-17T09:55:15;1.17;;;0.80;;
7205;SDS011;3644;53.480;10.004;2022-09-17T09:57:52;2.70;;;1.30;;
7205;SDS011;3644;53.480;10.004;2022-09-17T10:02:54;2.73;;;0.93;;
7205;SDS011;3644;53.480;10.004;2022-09-17T10:08:38;4.53;;;1.00;;
7205;SDS011;3644;53.480;10.004;2022-09-17T10:13:45;3.87;;;1.20;;
7205;SDS011;3644;53.480;10.004;2022-09-17T10:21:31;2.80;;;1.20;;
7205;SDS011;3644;53.480;10.004;2022-09-17T10:23:58;4.90;;;1.50;;
7205;SDS011;3644;53.480;10.004;2022-09-17T10:26:27;3.80;;;1.23;;
7205;SDS011;3644;53.480;10.004;2022-09-17T10:28:56;4.83;;;1.57;;
7205;SDS011;3644;53.480;10.004;2022-09-17T10:31:23;5.40;;;1.33;;
7205;SDS011;3644;53.480;10.004;2022-09-17T10:33:50;3.67;;;1.23;;
7205;SDS011;3644;53.480;10.004;2022-09-17T10:42:14;3.33;;;1.07;;
7205;SDS011;3644;53.480;10.004;2022-09-17T10:47:30;3.40;;;1.00;;
7205;SDS011;3644;53.480;10.004;2022-09-17T10:50:02;8.00;;;1.30;;
7205;SDS011;3644;53.480;10.004;2022-09-17T10:52:40;2.97;;;1.00;;
7205;SDS011;3644;53.480;10.004;2022-09-17T11:09:03;4.17;;;1.50;;
7205;SDS011;3644;53.480;10.004;2022-09-17T11:23:11;6.17;;;1.80;;
7205;SDS011;3644;53.480;10.004;2022-09-17T11:26:09;7.90;;;1.50;;
7205;SDS011;3644;53.480;10.004;2022-09-17T11:31:49;8.40;;;2.10;;
7205;SDS011;3644;53.480;10.004;2022-09-17T11:34:57;5.77;;;1.40;;
7205;SDS011;3644;53.480;10.004;2022-09-17T11:37:34;5.20;;;1.37;;
7205;SDS011;3644;53.480;10.004;2022-09-17T11:42:55;5.10;;;1.40;;
7205;SDS011;3644;53.480;10.004;2022-09-17T11:45:31;3.30;;;1.60;;
7205;SDS011;3644;53.480;10.004;2022-09-17T11:48:04;4.07;;;1.90;;
7205;SDS011;3644;53.480;10.004;2022-09-17T11:50:39;5.87;;;1.90;;
7205;SDS011;3644;53.480;10.004;2022-09-17T11:53:19;4.80;;;1.40;;
7205;SDS011;3644;53.480;10.004;2022-09-17T11:56:03;4.73;;;1.40;;
7205;SDS011;3644;53.480;10.004;2022-09-17T11:58:42;5.80;;;1.37;;
7205;SDS011;3644;53.480;10.004;2022-09-17T12:01:20;2.87;;;1.30;;
7205;SDS011;3644;53.480;10.004;2022-09-17T12:07:03;5.03;;;2.10;;
7205;SDS011;3644;53.480;10.004;2022-09-17T12:09:52;12.97;;;2.90;;
7205;SDS011;3644;53.480;10.004;2022-09-17T12:12:26;4.10;;;1.70;;
7205;SDS011;3644;53.480;10.004;2022-09-17T12:15:05;9.10;;;2.70;;
7205;SDS011;3644;53.480;10.004;2022-09-17T12:17:43;8.67;;;2.30;;
7205;SDS011;3644;53.480;10.004;2022-09-17T12:20:33;6.13;;;2.10;;
7205;SDS011;3644;53.480;10.004;2022-09-17T12:23:02;9.90;;;2.10;;
7205;SDS011;3644;53.480;10.004;2022-09-17T12:25:37;6.20;;;1.90;;
7205;SDS011;3644;53.480;10.004;2022-09-17T12:28:20;7.30;;;2.10;;
7205;SDS011;3644;53.480;10.004;2022-09-17T12:31:00;5.27;;;1.53;;
7205;SDS011;3644;53.480;10.004;2022-09-17T12:33:51;9.80;;;2.30;;
7205;SDS011;3644;53.480;10.004;2022-09-17T12:36:38;22.00;;;6.77;;
7205;SDS011;3644;53.480;10.004;2022-09-17T12:39:37;3.03;;;1.63;;
7205;SDS011;3644;53.480;10.004;2022-09-17T12:50:43;8.20;;;2.60;;
7205;SDS011;3644;53.480;10.004;2022-09-17T12:53:21;8.83;;;2.77;;
7205;SDS011;3644;53.480;10.004;2022-09-17T12:58:41;10.13;;;2.03;;
7205;SDS011;3644;53.480;10.004;2022-09-17T13:01:36;11.80;;;2.40;;
7205;SDS011;3644;53.480;10.004;2022-09-17T13:04:13;8.53;;;2.03;;
7205;SDS011;3644;53.480;10.004;2022-09-17T13:10:00;17.17;;;3.90;;
7205;SDS011;3644;53.480;10.004;2022-09-17T13:15:04;8.33;;;2.00;;
7205;SDS011;3644;53.480;10.004;2022-09-17T13:17:52;7.97;;;2.73;;
7205;SDS011;3644;53.480;10.004;2022-09-17T13:20:32;12.10;;;2.77;;
7205;SDS011;3644;53.480;10.004;2022-09-17T13:23:04;8.73;;;2.37;;
7205;SDS011;3644;53.480;10.004;2022-09-17T13:25:30;9.53;;;2.57;;
7205;SDS011;3644;53.480;10.004;2022-09-17T13:28:03;3.30;;;1.30;;
7205;SDS011;3644;53.480;10.004;2022-09-17T13:39:03;9.63;;;1.53;;
7205;SDS011;3644;53.480;10.004;2022-09-17T13:41:31;5.27;;;1.60;;
7205;SDS011;3644;53.480;10.004;2022-09-17T13:44:01;8.93;;;1.93;;
7205;SDS011;3644;53.480;10.004;2022-09-17T13:46:29;5.43;;;1.50;;
7205;SDS011;3644;53.480;10.004;2022-09-17T13:48:59;4.37;;;2.23;;
7205;SDS011;3644;53.480;10.004;2022-09-17T13:54:00;7.07;;;2.07;;
7205;SDS011;3644;53.480;10.004;2022-09-17T13:59:31;3.67;;;1.93;;
7205;SDS011;3644;53.480;10.004;2022-09-17T14:18:00;8.77;;;1.97;;
7205;SDS011;3644;53.480;10.004;2022-09-17T14:20:46;14.60;;;3.17;;
7205;SDS011;3644;53.480;10.004;2022-09-17T14:23:13;7.63;;;2.50;;
7205;SDS011;3644;53.480;10.004;2022-09-17T14:25:39;8.00;;;2.10;;
7205;SDS011;3644;53.480;10.004;2022-09-17T14:28:30;18.50;;;2.00;;
7205;SDS011;3644;53.480;10.004;2022-09-17T14:31:07;10.33;;;1.80;;
7205;SDS011;3644;53.480;10.004;2022-09-17T14:33:40;6.57;;;2.23;;
7205;SDS011;3644;53.480;10.004;2022-09-17T14:36:08;14.00;;;2.03;;
7205;SDS011;3644;53.480;10.004;2022-09-17T14:46:21;6.07;;;2.53;;
7205;SDS011;3644;53.480;10.004;2022-09-17T14:49:11;3.37;;;1.73;;
7205;SDS011;3644;53.480;10.004;2022-09-17T14:51:48;9.07;;;2.30;;
7205;SDS011;3644;53.480;10.004;2022-09-17T14:54:25;5.23;;;1.37;;
7205;SDS011;3644;53.480;10.004;2022-09-17T14:57:00;4.80;;;1.20;;
7205;SDS011;3644;53.480;10.004;2022-09-17T15:07:43;2.50;;;1.53;;
7205;SDS011;3644;53.480;10.004;2022-09-17T15:10:17;2.67;;;1.30;;
7205;SDS011;3644;53.480;10.004;2022-09-17T15:12:45;6.53;;;1.53;;
7205;SDS011;3644;53.480;10.004;2022-09-17T15:15:21;4.00;;;1.10;;
7205;SDS011;3644;53.480;10.004;2022-09-17T15:17:48;10.03;;;2.30;;
7205;SDS011;3644;53.480;10.004;2022-09-17T15:20:16;9.00;;;1.63;;
7205;SDS011;3644;53.480;10.004;2022-09-17T15:22:50;4.70;;;1.53;;
7205;SDS011;3644;53.480;10.004;2022-09-17T15:25:31;6.07;;;1.70;;
7205;SDS011;3644;53.480;10.004;2022-09-17T15:28:02;8.10;;;1.80;;
7205;SDS011;3644;53.480;10.004;2022-09-17T15:30:37;4.80;;;1.53;;
7205;SDS011;3644;53.480;10.004;2022-09-17T15:33:02;4.03;;;1.37;;
7205;SDS011;3644;53.480;10.004;2022-09-17T15:35:33;9.77;;;1.60;;
7205;SDS011;3644;53.480;10.004;2022-09-17T15:37:59;3.37;;;1.43;;
7205;SDS011;3644;53.480;10.004;2022-09-17T15:40:38;5.20;;;1.50;;
7205;SDS011;3644;53.480;10.004;2022-09-17T15:43:20;7.47;;;1.33;;
7205;SDS011;3644;53.480;10.004;2022-09-17T15:45:51;5.47;;;1.63;;
7205;SDS011;3644;53.480;10.004;2022-09-17T15:48:32;7.03;;;1.80;;
7205;SDS011;3644;53.480;10.004;2022-09-17T15:51:00;9.13;;;2.30;;
7205;SDS011;3644;53.480;10.004;2022-09-17T15:53:28;8.03;;;2.00;;
7205;SDS011;3644;53.480;10.004;2022-09-17T16:08:55;7.70;;;2.00;;
7205;SDS011;3644;53.480;10.004;2022-09-17T16:11:23;2.23;;;1.30;;
7205;SDS011;3644;53.480;10.004;2022-09-17T16:13:50;3.23;;;1.47;;
7205;SDS011;3644;53.480;10.004;2022-09-17T16:16:34;7.13;;;1.60;;
7205;SDS011;3644;53.480;10.004;2022-09-17T16:19:02;2.60;;;1.47;;
7205;SDS011;3644;53.480;10.004;2022-09-17T16:21:28;5.00;;;1.40;;
7205;SDS011;3644;53.480;10.004;2022-09-17T16:23:53;5.63;;;1.70;;
7205;SDS011;3644;53.480;10.004;2022-09-17T16:26:20;3.37;;;1.60;;
7205;SDS011;3644;53.480;10.004;2022-09-17T16:28:48;5.47;;;2.10;;
7205;SDS011;3644;53.480;10.004;2022-09-17T16:31:17;4.73;;;1.57;;
7205;SDS011;3644;53.480;10.004;2022-09-17T16:33:44;2.33;;;1.70;;
7205;SDS011;3644;53.480;10.004;2022-09-17T16:36:10;2.93;;;1.73;;
7205;SDS011;3644;53.480;10.004;2022-09-17T16:38:35;2.97;;;1.83;;
7205;SDS011;3644;53.480;10.004;2022-09-17T16:41:03;3.53;;;1.67;;
7205;SDS011;3644;53.480;10.004;2022-09-17T16:43:29;5.90;;;1.50;;
7205;SDS011;3644;53.480;10.004;2022-09-17T16:48:31;5.80;;;1.90;;
7205;SDS011;3644;53.480;10.004;2022-09-17T16:50:57;4.10;;;1.70;;
7205;SDS011;3644;53.480;10.004;2022-09-17T16:53:24;12.60;;;2.57;;
7205;SDS011;3644;53.480;10.004;2022-09-17T16:55:49;4.97;;;1.90;;
7205;SDS011;3644;53.480;10.004;2022-09-17T16:58:15;5.80;;;1.90;;
7205;SDS011;3644;53.480;10.004;2022-09-17T17:00:41;4.83;;;1.80;;
7205;SDS011;3644;53.480;10.004;2022-09-17T17:03:08;8.10;;;1.50;;
7205;SDS011;3644;53.480;10.004;2022-09-17T17:05:36;6.47;;;1.70;;
7205;SDS011;3644;53.480;10.004;2022-09-17T17:08:02;2.70;;;2.13;;
7205;SDS011;3644;53.480;10.004;2022-09-17T17:10:28;3.80;;;1.47;;
7205;SDS011;3644;53.480;10.004;2022-09-17T17:12:53;8.30;;;2.30;;
7205;SDS011;3644;53.480;10.004;2022-09-17T17:15:20;7.37;;;2.40;;
7205;SDS011;3644;53.480;10.004;2022-09-17T17:17:46;5.87;;;1.93;;
7205;SDS011;3644;53.480;10.004;2022-09-17T17:20:12;6.27;;;1.90;;
7205;SDS011;3644;53.480;10.004;2022-09-17T17:22:39;4.10;;;1.93;;
7205;SDS011;3644;53.480;10.004;2022-09-17T17:25:05;7.83;;;1.60;;
7205;SDS011;3644;53.480;10.004;2022-09-17T17:27:32;8.20;;;2.30;;
7205;SDS011;3644;53.480;10.004;2022-09-17T17:29:58;8.07;;;2.13;;
7205;SDS011;3644;53.480;10.004;2022-09-17T17:32:26;5.70;;;2.37;;
7205;SDS011;3644;53.480;10.004;2022-09-17T17:34:51;6.80;;;2.03;;
7205;SDS011;3644;53.480;10.004;2022-09-17T17:37:17;9.47;;;1.83;;
7205;SDS011;3644;53.480;10.004;2022-09-17T17:39:42;6.37;;;1.97;;
7205;SDS011;3644;53.480;10.004;2022-09-17T17:42:08;3.23;;;1.60;;
7205;SDS011;3644;53.480;10.004;2022-09-17T17:44:33;6.90;;;2.80;;
7205;SDS011;3644;53.480;10.004;2022-09-17T17:46:59;3.93;;;1.67;;
7205;SDS011;3644;53.480;10.004;2022-09-17T17:49:25;8.50;;;2.40;;
7205;SDS011;3644;53.480;10.004;2022-09-17T17:51:50;5.87;;;2.17;;
7205;SDS011;3644;53.480;10.004;2022-09-17T17:54:17;5.93;;;2.00;;
7205;SDS011;3644;53.480;10.004;2022-09-17T17:56:43;5.78;;;1.70;;
7205;SDS011;3644;53.480;10.004;2022-09-17T17:59:09;5.10;;;1.80;;
7205;SDS011;3644;53.480;10.004;2022-09-17T18:01:34;6.23;;;2.07;;
7205;SDS011;3644;53.480;10.004;2022-09-17T18:04:02;9.07;;;2.10;;
7205;SDS011;3644;53.480;10.004;2022-09-17T18:06:31;10.13;;;1.90;;
7205;SDS011;3644;53.480;10.004;2022-09-17T18:08:56;5.93;;;2.13;;
7205;SDS011;3644;53.480;10.004;2022-09-17T18:11:22;3.00;;;1.83;;
7205;SDS011;3644;53.480;10.004;2022-09-17T18:13:52;5.70;;;1.67;;
7205;SDS011;3644;53.480;10.004;2022-09-17T18:16:18;6.57;;;1.53;;
7205;SDS011;3644;53.480;10.004;2022-09-17T18:18:45;9.57;;;2.03;;
7205;SDS011;3644;53.480;10.004;2022-09-17T18:21:12;3.87;;;1.30;;
7205;SDS011;3644;53.480;10.004;2022-09-17T18:23:41;5.53;;;1.60;;